Time;durP1;ratioP1;P1;durP2;ratioP2;P2;SDS_P1;SDS_P2;PMS_P1;PMS_P2;Temp;Humidity;BMP_temperature;BMP_pressure;BME280_temperature;BME280_humidity;BME280_pressure;Samples;Min_cycle;Max_cycle;Signal;HPM_P1;HPM_P2
2022/12/04 00:01:03;;;;;;;90.45;41.80;;;4.20;99.90;;;;;;5092811;28;20020;-79
2022/12/04 00:03:29;;;;;;;93.37;43.00;;;4.30;99.90;;;;;;5078366;28;20108;-80
2022/12/04 00:06:09;;;;;;;98.60;46.78;;;4.30;99.90;;;;;;5092667;28;20131;-79
2022/12/04 00:08:35;;;;;;;99.93;46.03;;;4.30;99.90;;;;;;5092858;28;20107;-79
2022/12/04 00:11:04;;;;;;;102.72;47.10;;;4.20;99.90;;;;;;5092729;28;20547;-81
2022/12/04 00:13:31;;;;;;;95.43;43.05;;;4.10;99.90;;;;;;5091689;28;20040;-78
2022/12/04 00:15:58;;;;;;;99.75;45.53;;;4.40;99.90;;;;;;5092195;28;20476;-78
2022/12/04 00:18:24;;;;;;;100.05;45.30;;;4.20;99.90;;;;;;5091470;28;20032;-79
2022/12/04 00:20:50;;;;;;;95.50;45.03;;;3.90;99.90;;;;;;5091400;28;20392;-81
2022/12/04 00:23:16;;;;;;;94.10;42.80;;;3.90;99.90;;;;;;5092535;28;20103;-79
2022/12/04 00:25:47;;;;;;;95.72;45.40;;;3.50;99.90;;;;;;5092496;28;20119;-80
2022/12/04 00:28:17;;;;;;;98.68;44.72;;;3.80;99.90;;;;;;5092227;28;20041;-74
2022/12/04 00:30:44;;;;;;;102.93;47.47;;;4.00;99.90;;;;;;5092688;28;20052;-77
2022/12/04 00:33:11;;;;;;;105.93;43.22;;;4.00;99.90;;;;;;5092076;28;20032;-80
2022/12/04 00:35:37;;;;;;;100.50;45.67;;;3.70;99.90;;;;;;5092626;28;20024;-80
2022/12/04 00:38:03;;;;;;;103.30;47.28;;;3.80;99.90;;;;;;5092239;28;20028;-81
2022/12/04 00:40:29;;;;;;;115.57;49.63;;;4.00;99.90;;;;;;5092407;28;20469;-81
2022/12/04 00:42:55;;;;;;;112.03;48.50;;;3.90;99.90;;;;;;5092572;28;20060;-81
2022/12/04 00:45:20;;;;;;;105.70;47.13;;;3.80;99.90;;;;;;5092331;28;20063;-80
2022/12/04 00:47:46;;;;;;;116.45;50.83;;;3.80;99.90;;;;;;5092283;28;20050;-81
2022/12/04 00:50:12;;;;;;;115.93;50.17;;;4.00;99.90;;;;;;5092187;28;20077;-81
2022/12/04 00:52:38;;;;;;;104.60;49.83;;;4.20;99.90;;;;;;5092520;28;20020;-81
2022/12/04 00:55:04;;;;;;;103.28;47.80;;;4.20;99.90;;;;;;5092350;28;20028;-80
2022/12/04 00:57:30;;;;;;;115.40;47.58;;;4.10;99.90;;;;;;5092335;28;20024;-81
2022/12/04 00:59:56;;;;;;;115.53;50.53;;;4.00;99.90;;;;;;5060416;28;20075;-81
2022/12/04 01:02:21;;;;;;;117.15;48.92;;;4.10;99.90;;;;;;5094761;28;20035;-81
2022/12/04 01:04:47;;;;;;;111.65;48.95;;;4.10;99.90;;;;;;5094930;28;20086;-81
2022/12/04 01:07:13;;;;;;;104.88;45.50;;;3.80;99.90;;;;;;5095764;28;20032;-81
2022/12/04 01:09:39;;;;;;;126.13;52.10;;;3.60;99.90;;;;;;5095979;28;20031;-81
2022/12/04 01:12:05;;;;;;;115.50;48.05;;;3.40;99.90;;;;;;5095825;28;20038;-80
2022/12/04 01:14:30;;;;;;;111.05;46.67;;;3.30;99.90;;;;;;5077793;28;20024;-81
2022/12/04 01:16:56;;;;;;;118.93;49.30;;;3.20;99.90;;;;;;5095728;28;20085;-81
2022/12/04 01:19:22;;;;;;;121.55;48.08;;;3.20;99.90;;;;;;5095953;28;20066;-81
2022/12/04 01:21:48;;;;;;;111.32;48.78;;;3.40;99.90;;;;;;5095844;28;20085;-81
2022/12/04 01:24:13;;;;;;;110.18;47.10;;;3.40;99.90;;;;;;5095709;28;20016;-80
2022/12/04 01:26:39;;;;;;;113.22;47.63;;;3.50;99.90;;;;;;5094497;28;20160;-81
2022/12/04 01:29:05;;;;;;;95.53;38.45;;;3.40;99.90;;;;;;5094105;28;20539;-80
2022/12/04 01:31:31;;;;;;;112.53;45.25;;;3.00;99.90;;;;;;5094273;28;20028;-80
2022/12/04 01:33:57;;;;;;;112.47;46.92;;;3.00;99.90;;;;;;5094203;28;20027;-80
2022/12/04 01:36:26;;;;;;;101.20;43.75;;;2.90;99.90;;;;;;5093973;28;20032;-80
2022/12/04 01:38:52;;;;;;;102.82;43.92;;;2.80;99.90;;;;;;5095163;28;20020;-80
2022/12/04 01:41:24;;;;;;;103.25;43.72;;;2.80;99.90;;;;;;5095401;28;20032;-80
2022/12/04 01:44:06;;;;;;;128.63;51.05;;;2.70;99.90;;;;;;5094201;28;20035;-81
2022/12/04 01:46:32;;;;;;;106.68;44.28;;;2.90;99.90;;;;;;5094851;28;20055;-81
2022/12/04 01:48:58;;;;;;;117.55;47.95;;;2.80;99.90;;;;;;5095053;28;20024;-81
2022/12/04 01:51:33;;;;;;;117.28;47.72;;;2.80;99.90;;;;;;5093848;28;20032;-81
2022/12/04 01:54:03;;;;;;;125.03;48.90;;;2.90;99.90;;;;;;5095139;28;20032;-80
2022/12/04 01:56:46;;;;;;;117.90;49.63;;;3.00;99.90;;;;;;5095108;28;20035;-81
2022/12/04 01:59:16;;;;;;;123.15;48.92;;;2.90;99.90;;;;;;5093720;28;20567;-80
2022/12/04 02:01:55;;;;;;;109.28;44.20;;;2.90;99.90;;;;;;5094711;28;20403;-80
2022/12/04 02:04:20;;;;;;;106.18;45.15;;;2.80;99.90;;;;;;5093710;28;20032;-80
2022/12/04 02:06:46;;;;;;;114.80;47.95;;;2.80;99.90;;;;;;5093326;28;20040;-80
2022/12/04 02:09:12;;;;;;;118.20;48.80;;;2.90;99.90;;;;;;5094725;28;20021;-80
2022/12/04 02:11:49;;;;;;;114.00;45.40;;;2.70;99.90;;;;;;5095093;28;20035;-80
2022/12/04 02:14:21;;;;;;;110.68;45.92;;;2.80;99.90;;;;;;5093583;28;20024;-80
2022/12/04 02:17:01;;;;;;;115.25;47.03;;;2.60;99.90;;;;;;5094901;28;20040;-81
2022/12/04 02:19:46;;;;;;;119.95;45.88;;;2.60;99.90;;;;;;5093338;28;20028;-81
2022/12/04 02:22:53;;;;;;;113.03;48.22;;;2.50;99.90;;;;;;5094493;28;20031;-80
2022/12/04 02:25:32;;;;;;;119.63;49.83;;;2.50;99.90;;;;;;5094498;28;20077;-80
2022/12/04 02:28:17;;;;;;;123.65;51.20;;;2.60;99.90;;;;;;5094497;28;20040;-80
2022/12/04 02:30:44;;;;;;;132.38;52.10;;;2.80;99.90;;;;;;5092994;28;20055;-80
2022/12/04 02:33:35;;;;;;;125.50;52.92;;;3.00;99.90;;;;;;5094371;28;20035;-78
2022/12/04 02:36:06;;;;;;;128.48;49.15;;;3.00;99.90;;;;;;5094143;28;20031;-80
2022/12/04 02:38:39;;;;;;;116.38;45.78;;;3.10;99.90;;;;;;5094008;28;20048;-80
2022/12/04 02:41:18;;;;;;;128.60;50.97;;;3.10;99.90;;;;;;5092972;28;20111;-81
2022/12/04 02:43:47;;;;;;;117.68;45.90;;;3.30;99.90;;;;;;5093940;28;20020;-80
2022/12/04 02:46:23;;;;;;;107.50;46.63;;;3.20;99.90;;;;;;5093760;28;20032;-81
2022/12/04 02:48:52;;;;;;;110.38;48.35;;;3.10;99.90;;;;;;5094091;28;20047;-80
2022/12/04 02:51:22;;;;;;;114.65;46.15;;;2.90;99.90;;;;;;5093989;28;20107;-81
2022/12/04 02:53:52;;;;;;;123.70;49.08;;;2.90;99.90;;;;;;5094183;28;20032;-81
2022/12/04 02:56:31;;;;;;;114.28;47.38;;;2.90;99.90;;;;;;5093657;28;20118;-81
2022/12/04 02:59:02;;;;;;;110.20;46.80;;;3.00;99.90;;;;;;5093524;28;20055;-80
2022/12/04 03:01:33;;;;;;;117.63;47.63;;;3.00;99.90;;;;;;5093787;28;20040;-80
2022/12/04 03:04:11;;;;;;;115.85;46.75;;;2.90;99.90;;;;;;5094153;28;20022;-74
2022/12/04 03:06:41;;;;;;;123.18;48.97;;;2.90;99.90;;;;;;5093991;28;20518;-76
2022/12/04 03:09:10;;;;;;;129.38;50.95;;;2.80;99.90;;;;;;5092496;28;20027;-80
2022/12/04 03:11:39;;;;;;;118.13;47.58;;;2.80;99.90;;;;;;5093616;28;20032;-81
2022/12/04 03:14:20;;;;;;;120.43;49.92;;;2.80;99.90;;;;;;5091949;28;20052;-80
2022/12/04 03:16:47;;;;;;;120.55;48.60;;;2.90;99.90;;;;;;5093500;28;20121;-80
2022/12/04 03:19:21;;;;;;;118.82;47.63;;;2.80;99.90;;;;;;5092178;28;20052;-80
2022/12/04 03:21:52;;;;;;;117.50;46.65;;;2.50;99.90;;;;;;5093635;28;20032;-81
2022/12/04 03:24:32;;;;;;;112.78;49.53;;;2.70;99.90;;;;;;5093439;28;20495;-77
2022/12/04 03:27:09;;;;;;;108.90;46.50;;;2.80;99.90;;;;;;5093164;28;20431;-81
2022/12/04 03:29:57;;;;;;;121.80;46.38;;;2.80;99.90;;;;;;5073623;28;20021;-81
2022/12/04 03:32:34;;;;;;;122.43;51.30;;;2.80;99.90;;;;;;5076327;28;20517;-81
2022/12/04 03:35:09;;;;;;;112.32;45.17;;;2.90;99.90;;;;;;5071964;28;20029;-80
2022/12/04 03:37:40;;;;;;;117.15;45.72;;;2.90;99.90;;;;;;5079036;28;20032;-80
2022/12/04 03:40:36;;;;;;;111.28;46.22;;;3.00;99.90;;;;;;5088032;28;20036;-80
2022/12/04 03:43:11;;;;;;;107.50;46.78;;;3.20;99.90;;;;;;5091890;28;20429;-80
2022/12/04 03:46:05;;;;;;;100.03;41.67;;;3.30;99.90;;;;;;5091420;28;20101;-80
2022/12/04 03:48:44;;;;;;;101.55;44.17;;;3.40;99.90;;;;;;5091909;28;20039;-80
2022/12/04 03:51:32;;;;;;;102.82;44.28;;;3.50;99.90;;;;;;5093004;28;20047;-81
2022/12/04 03:54:03;;;;;;;129.77;54.22;;;3.80;99.90;;;;;;5092843;28;20028;-80
2022/12/04 03:56:33;;;;;;;111.70;48.27;;;3.80;99.90;;;;;;5092636;28;20059;-80
2022/12/04 03:59:13;;;;;;;109.97;49.05;;;3.80;99.90;;;;;;5091762;28;20294;-81
2022/12/04 04:01:45;;;;;;;107.55;47.30;;;3.70;99.90;;;;;;5092836;28;20024;-81
2022/12/04 04:04:20;;;;;;;106.10;46.15;;;3.70;99.90;;;;;;5091370;28;20043;-80
2022/12/04 04:06:54;;;;;;;102.97;44.42;;;3.70;99.90;;;;;;5091484;28;20123;-80
2022/12/04 04:09:23;;;;;;;86.22;43.17;;;3.60;99.90;;;;;;5091537;28;20035;-81
2022/12/04 04:12:01;;;;;;;108.72;45.95;;;3.40;99.90;;;;;;5092472;28;20036;-80
2022/12/04 04:26:15;;;;;;;119.55;49.83;;;3.40;99.90;;;;;;5092177;28;20071;-80
2022/12/04 04:28:41;;;;;;;111.65;47.83;;;3.30;99.90;;;;;;5087160;28;20024;-81
2022/12/04 04:31:16;;;;;;;109.47;49.33;;;3.40;99.90;;;;;;5086641;28;20465;-76
2022/12/04 04:34:10;;;;;;;88.35;41.55;;;3.30;99.90;;;;;;5092488;28;20529;-81
2022/12/04 04:36:35;;;;;;;97.47;43.03;;;3.30;99.90;;;;;;5055671;28;20079;-81
2022/12/04 04:39:16;;;;;;;93.57;41.15;;;3.20;99.90;;;;;;5096726;28;20060;-81
2022/12/04 04:41:53;;;;;;;92.95;42.78;;;3.20;99.90;;;;;;5096462;28;20468;-81
2022/12/04 04:44:25;;;;;;;92.15;42.53;;;3.40;99.90;;;;;;5096666;28;20131;-79
2022/12/04 04:46:58;;;;;;;95.75;42.10;;;3.40;99.90;;;;;;5095128;28;20050;-81
2022/12/04 04:49:28;;;;;;;96.75;42.17;;;3.30;99.90;;;;;;5095379;28;20020;-81
2022/12/04 04:51:56;;;;;;;90.75;40.53;;;3.60;99.90;;;;;;5096171;28;20024;-81
2022/12/04 04:54:22;;;;;;;91.40;40.10;;;3.40;99.90;;;;;;5077992;28;20461;-80
2022/12/04 04:56:48;;;;;;;85.47;39.63;;;3.00;99.90;;;;;;5096024;28;20033;-80
2022/12/04 04:59:14;;;;;;;89.50;40.63;;;3.00;99.90;;;;;;5096225;28;20027;-81
2022/12/04 05:01:42;;;;;;;93.65;43.35;;;3.00;99.90;;;;;;5096413;28;20479;-81
2022/12/04 05:04:09;;;;;;;92.65;40.78;;;3.00;99.90;;;;;;5095974;28;20028;-80
2022/12/04 05:06:35;;;;;;;94.80;41.10;;;2.80;99.90;;;;;;5094877;28;20395;-81
2022/12/04 05:09:01;;;;;;;93.05;43.58;;;3.10;99.90;;;;;;5095465;28;20020;-81
2022/12/04 05:11:27;;;;;;;88.07;41.67;;;3.20;99.90;;;;;;5096267;28;20035;-81
2022/12/04 05:13:53;;;;;;;88.75;41.35;;;3.50;99.90;;;;;;5094444;28;20016;-80
2022/12/04 05:16:19;;;;;;;91.30;43.10;;;3.40;99.90;;;;;;5094472;28;20089;-80
2022/12/04 05:19:52;;;;;;;90.97;41.78;;;3.60;99.90;;;;;;5094548;28;20027;-80
2022/12/04 05:21:31;;;;;;;95.40;42.65;;;3.40;99.90;;;;;;5095706;28;20036;-80
2022/12/04 05:23:56;;;;;;;99.53;41.47;;;3.50;99.90;;;;;;5095532;28;20020;-80
2022/12/04 05:26:23;;;;;;;94.05;42.38;;;3.50;99.90;;;;;;5095562;28;20427;-81
2022/12/04 05:28:48;;;;;;;95.85;43.20;;;3.60;99.90;;;;;;5095456;28;20042;-81
2022/12/04 05:31:14;;;;;;;96.07;42.88;;;3.60;99.90;;;;;;5095685;28;20107;-81
2022/12/04 05:33:40;;;;;;;92.18;42.33;;;3.70;99.90;;;;;;5095385;28;20035;-81
2022/12/04 05:36:08;;;;;;;90.55;43.05;;;3.70;99.90;;;;;;5095361;28;20062;-79
2022/12/04 05:38:34;;;;;;;86.68;43.00;;;3.60;99.90;;;;;;5095048;28;20024;-82
2022/12/04 05:41:02;;;;;;;91.95;44.05;;;3.60;99.90;;;;;;5094606;28;20039;-76
2022/12/04 05:43:27;;;;;;;86.32;42.45;;;3.70;99.90;;;;;;5095953;28;20115;-75
2022/12/04 05:45:53;;;;;;;91.15;44.60;;;3.60;99.90;;;;;;5095045;28;20107;-81
2022/12/04 05:48:19;;;;;;;89.53;44.45;;;3.60;99.90;;;;;;5093723;28;20032;-80
2022/12/04 05:50:45;;;;;;;90.35;42.60;;;3.70;99.90;;;;;;5095250;28;20047;-81
2022/12/04 05:53:11;;;;;;;89.60;42.60;;;3.70;99.90;;;;;;5094759;28;20028;-81
2022/12/04 05:55:36;;;;;;;91.22;44.22;;;3.70;99.90;;;;;;5095209;28;20016;-81
2022/12/04 05:58:03;;;;;;;95.57;43.05;;;3.80;99.90;;;;;;5093810;28;20036;-81
2022/12/04 06:00:29;;;;;;;90.28;43.28;;;3.70;99.90;;;;;;5091503;28;20054;-81
2022/12/04 06:02:55;;;;;;;91.43;46.60;;;3.80;99.90;;;;;;5094804;28;20028;-81
2022/12/04 06:05:20;;;;;;;89.00;45.13;;;3.80;99.90;;;;;;5094848;28;20039;-80
2022/12/04 06:07:46;;;;;;;106.95;47.30;;;4.00;99.90;;;;;;5094828;28;20469;-81
2022/12/04 06:10:12;;;;;;;111.93;50.78;;;4.10;99.90;;;;;;5093577;28;20111;-80
2022/12/04 06:12:37;;;;;;;106.20;50.33;;;3.90;99.90;;;;;;5094872;28;20016;-81
2022/12/04 06:15:04;;;;;;;109.63;49.65;;;3.80;99.90;;;;;;5093423;28;20055;-80
2022/12/04 06:17:30;;;;;;;104.05;47.03;;;3.40;99.90;;;;;;5094671;28;20039;-81
2022/12/04 06:19:55;;;;;;;107.40;47.35;;;3.50;99.90;;;;;;5093465;28;20016;-81
2022/12/04 06:22:21;;;;;;;107.95;49.95;;;3.50;99.90;;;;;;5094192;28;20028;-80
2022/12/04 06:24:47;;;;;;;112.38;47.78;;;3.50;99.90;;;;;;5094575;28;20463;-80
2022/12/04 06:27:13;;;;;;;97.70;46.33;;;3.40;99.90;;;;;;5094637;28;20081;-81
2022/12/04 06:29:39;;;;;;;99.20;47.55;;;3.40;99.90;;;;;;5094452;28;20020;-81
2022/12/04 06:32:05;;;;;;;106.07;49.08;;;3.40;99.90;;;;;;5094391;28;20028;-81
2022/12/04 06:34:31;;;;;;;99.20;46.63;;;3.50;99.90;;;;;;5092885;28;20121;-80
2022/12/04 06:36:57;;;;;;;95.88;45.15;;;3.30;99.90;;;;;;5094019;28;20023;-80
2022/12/04 06:39:22;;;;;;;103.93;47.22;;;3.30;99.90;;;;;;5094391;28;20138;-80
2022/12/04 06:41:48;;;;;;;112.10;49.65;;;3.40;99.90;;;;;;5092985;28;20065;-81
2022/12/04 06:44:15;;;;;;;108.70;50.83;;;3.40;99.90;;;;;;5094156;28;20024;-80
2022/12/04 06:46:41;;;;;;;107.03;51.05;;;3.30;99.90;;;;;;5092821;28;20047;-81
2022/12/04 06:49:08;;;;;;;109.13;48.72;;;3.40;99.90;;;;;;5094165;28;20024;-79
2022/12/04 06:51:36;;;;;;;102.57;47.70;;;3.50;99.90;;;;;;5093723;28;20434;-80
2022/12/04 06:54:02;;;;;;;103.50;46.55;;;3.60;99.90;;;;;;5093987;28;20077;-80
2022/12/04 06:56:30;;;;;;;96.43;46.70;;;3.50;99.90;;;;;;5093916;28;20020;-80
2022/12/04 06:58:59;;;;;;;93.20;45.30;;;3.60;99.90;;;;;;5092256;28;20024;-80
2022/12/04 07:01:27;;;;;;;91.32;44.05;;;3.30;99.90;;;;;;5093743;28;20039;-78
2022/12/04 07:03:54;;;;;;;98.18;47.28;;;3.20;99.90;;;;;;5093312;28;20059;-80
2022/12/04 07:06:23;;;;;;;97.68;44.63;;;3.40;99.90;;;;;;5093622;28;20123;-80
2022/12/04 07:08:52;;;;;;;94.63;46.38;;;3.40;99.90;;;;;;5092435;28;20032;-80
2022/12/04 07:11:20;;;;;;;93.95;46.83;;;3.50;99.90;;;;;;5092716;28;20020;-80
2022/12/04 07:13:46;;;;;;;91.32;43.45;;;3.30;99.90;;;;;;5093518;28;20047;-77
2022/12/04 07:16:14;;;;;;;98.43;46.05;;;3.40;99.90;;;;;;5078890;28;20024;-79
2022/12/04 07:18:40;;;;;;;95.22;46.63;;;3.30;99.90;;;;;;5064694;28;20068;-80
2022/12/04 07:21:08;;;;;;;92.70;44.97;;;3.50;99.90;;;;;;5072254;28;20377;-80
2022/12/04 07:23:35;;;;;;;94.47;45.42;;;3.30;99.90;;;;;;5072185;28;20025;-79
2022/12/04 07:26:09;;;;;;;97.90;46.95;;;3.50;99.90;;;;;;5070739;28;20119;-80
2022/12/04 07:28:36;;;;;;;103.55;47.85;;;3.40;99.90;;;;;;5062723;28;20024;-79
2022/12/04 07:31:07;;;;;;;96.05;44.65;;;3.50;99.90;;;;;;5070823;28;20102;-80
2022/12/04 07:33:33;;;;;;;93.47;44.63;;;3.50;99.90;;;;;;5072111;28;20033;-81
2022/12/04 07:36:00;;;;;;;101.20;48.22;;;3.70;99.90;;;;;;5071876;28;20043;-80
2022/12/04 07:38:28;;;;;;;98.03;45.55;;;3.70;99.90;;;;;;5079110;28;20028;-80
2022/12/04 07:40:58;;;;;;;97.53;45.13;;;3.50;99.90;;;;;;5085300;28;20047;-80
2022/12/04 07:43:25;;;;;;;98.97;46.20;;;3.50;99.90;;;;;;5081696;28;20503;-79
2022/12/04 07:45:50;;;;;;;101.93;46.25;;;3.40;99.90;;;;;;5084251;28;20037;-80
2022/12/04 07:48:17;;;;;;;95.45;44.85;;;3.30;99.90;;;;;;5075178;28;20035;-80
2022/12/04 07:50:43;;;;;;;93.80;46.33;;;3.30;99.90;;;;;;5085919;28;20089;-80
2022/12/04 07:53:08;;;;;;;98.78;46.83;;;3.10;99.90;;;;;;5084362;28;20070;-80
2022/12/04 07:55:34;;;;;;;97.93;44.78;;;3.10;99.90;;;;;;5088258;28;20032;-80
2022/12/04 07:58:00;;;;;;;88.90;43.67;;;3.20;99.90;;;;;;5083863;28;20032;-80
2022/12/04 08:00:26;;;;;;;93.38;45.90;;;3.20;99.90;;;;;;5079379;28;20056;-79
2022/12/04 08:02:51;;;;;;;103.35;47.67;;;3.40;99.90;;;;;;5085330;28;20107;-77
2022/12/04 08:05:17;;;;;;;104.07;46.65;;;3.50;99.90;;;;;;5082238;28;20027;-79
2022/12/04 08:07:43;;;;;;;97.97;45.97;;;3.60;99.90;;;;;;5091797;28;20081;-79
2022/12/04 08:10:10;;;;;;;95.97;47.20;;;3.60;99.90;;;;;;5081194;28;20032;-80
2022/12/04 08:12:35;;;;;;;101.22;46.90;;;3.50;99.90;;;;;;5080531;28;20024;-79
2022/12/04 08:15:02;;;;;;;95.22;45.83;;;3.30;99.90;;;;;;5084082;28;20035;-80
2022/12/04 08:17:27;;;;;;;97.78;47.60;;;3.30;99.90;;;;;;5058219;28;20527;-80
2022/12/04 08:19:53;;;;;;;95.72;46.03;;;3.20;99.90;;;;;;5071547;28;20028;-78
2022/12/04 08:22:19;;;;;;;86.43;44.33;;;3.30;99.90;;;;;;5067539;28;20028;-74
2022/12/04 08:24:45;;;;;;;96.07;46.97;;;3.40;99.90;;;;;;5053783;28;20028;-80
2022/12/04 08:27:11;;;;;;;93.18;45.22;;;3.20;99.90;;;;;;5067844;28;20132;-80
2022/12/04 08:29:36;;;;;;;97.40;46.47;;;3.40;99.90;;;;;;5053006;28;20029;-78
2022/12/04 08:32:03;;;;;;;92.65;46.05;;;3.20;99.90;;;;;;5054022;28;20029;-81
2022/12/04 08:34:29;;;;;;;99.10;46.40;;;3.20;99.90;;;;;;5038009;28;20586;-81
2022/12/04 08:36:55;;;;;;;102.97;47.63;;;3.40;99.90;;;;;;5055811;28;20487;-81
2022/12/04 08:39:21;;;;;;;96.78;48.63;;;3.30;99.90;;;;;;5066272;28;20033;-80
2022/12/04 08:41:46;;;;;;;101.28;47.10;;;3.60;99.90;;;;;;5052599;28;20029;-81
2022/12/04 08:44:12;;;;;;;99.25;46.10;;;3.60;99.90;;;;;;5055945;28;20122;-80
2022/12/04 08:46:38;;;;;;;92.72;48.17;;;3.60;99.90;;;;;;5052760;28;20033;-81
2022/12/04 08:49:04;;;;;;;101.05;49.47;;;3.60;99.90;;;;;;5051570;28;20021;-80
2022/12/04 08:51:33;;;;;;;99.55;46.40;;;3.90;99.90;;;;;;5064138;28;20028;-81
2022/12/04 08:54:02;;;;;;;102.05;48.10;;;3.90;99.90;;;;;;5069691;28;20024;-79
2022/12/04 08:56:29;;;;;;;102.80;49.05;;;4.20;99.90;;;;;;5071167;28;20028;-79
2022/12/04 08:58:55;;;;;;;92.70;46.65;;;4.00;99.90;;;;;;5071118;28;20025;-80
2022/12/04 09:01:22;;;;;;;100.88;48.35;;;3.90;99.90;;;;;;5071088;28;20032;-81
2022/12/04 09:03:48;;;;;;;96.65;46.72;;;3.70;99.90;;;;;;5073053;28;20021;-79
2022/12/04 09:06:15;;;;;;;91.63;44.60;;;3.90;99.90;;;;;;5080616;28;20040;-80
2022/12/04 09:08:40;;;;;;;94.90;46.75;;;3.90;99.90;;;;;;5070825;28;20020;-80
2022/12/04 09:11:12;;;;;;;96.80;46.40;;;3.70;99.90;;;;;;5071108;28;20388;-80
2022/12/04 09:13:39;;;;;;;101.75;49.42;;;3.80;99.90;;;;;;5069627;28;20031;-81
2022/12/04 09:16:11;;;;;;;95.05;47.20;;;4.00;99.90;;;;;;5069245;28;20404;-80
2022/12/04 09:18:37;;;;;;;99.90;49.38;;;4.10;99.90;;;;;;5070889;28;20036;-80
2022/12/04 09:21:06;;;;;;;99.70;48.53;;;4.10;99.90;;;;;;5063433;28;20115;-81
2022/12/04 09:23:33;;;;;;;104.60;49.80;;;3.90;99.90;;;;;;5074049;28;20123;-75
2022/12/04 09:25:59;;;;;;;100.60;46.95;;;3.70;99.90;;;;;;5074357;28;20036;-74
2022/12/04 09:28:25;;;;;;;101.10;49.20;;;3.80;99.90;;;;;;5074345;28;20024;-75
2022/12/04 09:31:03;;;;;;;105.57;51.83;;;3.90;99.90;;;;;;5074059;28;20038;-75
2022/12/04 09:33:30;;;;;;;100.53;47.92;;;4.00;99.90;;;;;;5065508;28;20108;-75
2022/12/04 09:36:00;;;;;;;100.30;49.92;;;4.00;99.90;;;;;;5073891;28;20029;-74
2022/12/04 09:38:27;;;;;;;102.22;48.40;;;3.90;99.90;;;;;;5078859;28;20028;-81
2022/12/04 09:41:09;;;;;;;99.65;48.67;;;3.80;99.90;;;;;;5073288;28;20120;-81
2022/12/04 09:43:35;;;;;;;96.32;48.97;;;3.90;99.90;;;;;;5087394;28;20028;-81
2022/12/04 09:46:08;;;;;;;104.20;50.60;;;3.70;99.90;;;;;;5084783;28;20082;-81
2022/12/04 09:48:39;;;;;;;99.32;49.75;;;3.90;99.90;;;;;;5079067;28;20103;-81
2022/12/04 09:51:17;;;;;;;107.25;49.45;;;4.00;99.90;;;;;;5083450;28;20043;-81
2022/12/04 09:54:09;;;;;;;98.40;47.97;;;3.80;99.90;;;;;;5086189;28;20111;-80
2022/12/04 09:56:34;;;;;;;92.85;45.47;;;3.80;99.90;;;;;;5080388;28;20024;-81
2022/12/04 09:59:25;;;;;;;102.45;49.65;;;3.80;99.90;;;;;;5064579;28;20027;-81
2022/12/04 10:01:57;;;;;;;95.65;48.25;;;3.90;99.90;;;;;;5075107;28;20404;-80
2022/12/04 10:04:24;;;;;;;103.35;48.88;;;4.20;99.90;;;;;;5072934;28;20020;-81
2022/12/04 10:07:27;;;;;;;92.38;48.38;;;4.30;99.90;;;;;;5077692;28;20542;-81
2022/12/04 10:10:18;;;;;;;96.43;48.35;;;4.40;99.90;;;;;;5059723;28;20036;-81
2022/12/04 10:12:49;;;;;;;86.90;44.83;;;4.00;99.90;;;;;;5082445;28;20081;-80
2022/12/04 10:15:45;;;;;;;88.82;46.75;;;4.20;99.90;;;;;;5081193;28;20036;-81
2022/12/04 10:18:34;;;;;;;89.07;45.10;;;4.40;99.90;;;;;;5072700;28;20109;-80
2022/12/04 10:21:18;;;;;;;93.65;47.80;;;4.20;99.90;;;;;;5078497;28;20109;-78
2022/12/04 10:24:12;;;;;;;87.80;45.60;;;4.40;99.90;;;;;;5070901;28;20424;-81
2022/12/04 10:26:44;;;;;;;88.53;44.08;;;4.40;99.90;;;;;;5068321;28;20129;-81
2022/12/04 10:29:23;;;;;;;85.28;44.85;;;4.30;99.90;;;;;;5092014;28;20081;-81
2022/12/04 10:31:53;;;;;;;87.72;44.45;;;4.30;99.90;;;;;;5093657;28;20532;-81
2022/12/04 10:34:24;;;;;;;81.43;42.67;;;4.40;99.90;;;;;;5092784;28;20111;-81
2022/12/04 10:36:53;;;;;;;84.03;44.38;;;4.40;99.90;;;;;;5093115;28;20044;-81
2022/12/04 10:39:36;;;;;;;78.28;43.05;;;4.20;99.90;;;;;;5093374;28;20392;-81
2022/12/04 10:42:35;;;;;;;81.60;44.38;;;4.40;99.90;;;;;;5094798;28;20032;-81
2022/12/04 10:45:00;;;;;;;80.28;42.60;;;4.60;99.90;;;;;;5068357;28;20495;-81
2022/12/04 10:47:27;;;;;;;78.35;41.85;;;4.40;99.90;;;;;;5073864;28;20033;-80
2022/12/04 10:49:59;;;;;;;79.25;41.95;;;4.60;99.90;;;;;;5073487;28;20071;-80
2022/12/04 10:52:25;;;;;;;70.40;37.50;;;4.60;99.90;;;;;;5071985;28;20053;-79
2022/12/04 10:54:58;;;;;;;76.93;40.65;;;4.60;99.90;;;;;;5073117;28;20033;-81
2022/12/04 10:57:42;;;;;;;72.05;36.75;;;4.60;99.90;;;;;;5072920;28;20078;-81
2022/12/04 11:00:29;;;;;;;82.43;38.28;;;4.50;99.90;;;;;;5074252;28;20063;-80
2022/12/04 11:02:58;;;;;;;73.60;38.22;;;4.70;99.90;;;;;;5070181;28;20043;-80
2022/12/04 11:05:27;;;;;;;72.90;38.42;;;4.30;99.90;;;;;;5072745;28;20124;-80
2022/12/04 11:07:54;;;;;;;72.35;38.25;;;4.20;99.90;;;;;;5072950;28;20068;-80
2022/12/04 11:10:22;;;;;;;71.30;38.10;;;3.90;99.90;;;;;;5071653;28;20099;-80
2022/12/04 11:13:05;;;;;;;66.63;37.40;;;4.00;99.90;;;;;;5072133;28;20075;-74
2022/12/04 11:15:35;;;;;;;59.63;33.80;;;4.30;99.90;;;;;;5070897;28;20051;-73
2022/12/04 11:18:34;;;;;;;61.38;32.92;;;4.20;99.90;;;;;;5055190;28;20504;-74
2022/12/04 11:21:04;;;;;;;61.65;34.10;;;4.00;99.90;;;;;;5051488;28;20087;-73
2022/12/04 11:23:40;;;;;;;59.42;34.20;;;4.20;99.90;;;;;;5071355;28;20032;-74
2022/12/04 11:26:07;;;;;;;68.43;36.80;;;4.30;99.90;;;;;;5069681;28;20024;-74
2022/12/04 11:28:34;;;;;;;64.07;36.10;;;4.30;99.90;;;;;;5069178;28;20107;-74
2022/12/04 11:31:03;;;;;;;57.38;33.20;;;4.40;99.90;;;;;;5068895;28;20692;-75
2022/12/04 11:33:33;;;;;;;57.15;32.90;;;4.40;99.90;;;;;;5072554;28;20036;-74
2022/12/04 11:36:02;;;;;;;62.50;31.75;;;4.80;99.90;;;;;;5070151;28;20060;-74
2022/12/04 11:38:30;;;;;;;60.53;29.90;;;4.40;99.90;;;;;;5064841;28;20055;-73
2022/12/04 11:40:58;;;;;;;58.45;32.40;;;4.30;99.90;;;;;;5068321;28;20099;-75
2022/12/04 11:43:28;;;;;;;57.50;32.42;;;4.30;99.90;;;;;;5069858;28;20073;-74
2022/12/04 11:45:55;;;;;;;55.75;33.58;;;4.60;99.90;;;;;;5069891;28;20439;-75
2022/12/04 11:48:21;;;;;;;59.65;34.42;;;4.30;99.90;;;;;;5068636;28;20063;-72
2022/12/04 11:51:14;;;;;;;59.50;36.03;;;4.20;99.90;;;;;;5071844;28;20052;-75
2022/12/04 11:54:13;;;;;;;63.53;35.75;;;4.10;99.90;;;;;;5068466;28;20040;-81
2022/12/04 11:56:48;;;;;;;60.15;37.08;;;4.20;99.90;;;;;;5065158;28;20472;-78
2022/12/04 11:59:26;;;;;;;63.35;36.05;;;4.10;99.90;;;;;;5067832;28;20085;-79
2022/12/04 12:02:30;;;;;;;65.20;37.47;;;4.10;99.90;;;;;;5071841;28;20111;-77
2022/12/04 12:05:08;;;;;;;59.55;36.45;;;4.10;99.90;;;;;;5041167;28;20114;-77
2022/12/04 12:07:52;;;;;;;63.58;37.50;;;4.20;99.90;;;;;;5048879;28;20033;-79
2022/12/04 12:10:32;;;;;;;77.80;40.28;;;4.30;99.90;;;;;;5064185;28;20045;-79
2022/12/04 12:13:22;;;;;;;75.28;40.13;;;4.40;99.90;;;;;;5067516;28;20035;-80
2022/12/04 12:15:57;;;;;;;61.38;36.08;;;4.20;99.90;;;;;;5063953;28;20052;-78
2022/12/04 12:18:50;;;;;;;59.97;34.75;;;4.10;99.90;;;;;;5065831;28;20028;-79
2022/12/04 12:21:31;;;;;;;49.35;29.30;;;4.10;99.90;;;;;;5060232;28;20071;-80
2022/12/04 12:24:02;;;;;;;50.28;30.08;;;4.40;99.90;;;;;;5081336;28;20027;-79
2022/12/04 12:26:51;;;;;;;52.97;29.08;;;4.50;99.90;;;;;;5072416;28;20033;-80
2022/12/04 12:29:45;;;;;;;47.70;27.45;;;4.50;99.90;;;;;;5071817;28;20036;-80
2022/12/04 12:32:19;;;;;;;45.53;26.52;;;4.30;99.90;;;;;;5069539;28;20020;-76
2022/12/04 12:34:46;;;;;;;44.83;25.15;;;4.30;99.90;;;;;;5068466;28;20033;-79
2022/12/04 12:37:22;;;;;;;43.25;25.02;;;3.90;99.90;;;;;;5073208;28;20056;-77
2022/12/04 12:39:54;;;;;;;46.58;26.63;;;3.90;99.90;;;;;;5070578;28;20060;-78
2022/12/04 12:42:25;;;;;;;41.25;25.58;;;4.00;99.90;;;;;;5068708;28;20480;-81
2022/12/04 12:45:15;;;;;;;46.22;26.65;;;4.20;99.90;;;;;;5070359;28;20074;-79
2022/12/04 12:47:45;;;;;;;47.03;23.65;;;4.30;99.90;;;;;;5068250;28;20101;-79
2022/12/04 12:50:26;;;;;;;56.00;29.30;;;4.40;99.90;;;;;;5069263;28;20037;-78
2022/12/04 12:53:00;;;;;;;48.55;25.85;;;4.30;99.90;;;;;;5069779;28;20033;-77
2022/12/04 12:55:32;;;;;;;47.95;25.85;;;4.00;99.90;;;;;;5069444;28;20029;-79
2022/12/04 12:57:57;;;;;;;;;;;4.00;99.90;;;;;;5067418;28;20035;-79
2022/12/04 13:00:24;;;;;;;45.50;25.45;;;4.20;99.90;;;;;;5071684;28;19908;-80
2022/12/04 13:02:59;;;;;;;42.45;23.83;;;4.10;99.90;;;;;;5074366;28;20477;-80
2022/12/04 13:05:47;;;;;;;47.17;24.88;;;3.80;99.90;;;;;;5073297;28;20028;-80